Time;durP1;ratioP1;P1;durP2;ratioP2;P2;SDS_P1;SDS_P2;PMS_P1;PMS_P2;Temp;Humidity;BMP_temperature;BMP_pressure;BME280_temperature;BME280_humidity;BME280_pressure;Samples;Min_cycle;Max_cycle;Signal;HPM_P1;HPM_P2
2022/01/19 00:00:22;;;;;;;11.80;9.93;;;4.00;99.90;;;;;;4982287;28;20553;-87
2022/01/19 00:02:49;;;;;;;11.50;10.30;;;4.00;99.90;;;;;;4978556;28;20444;-87
2022/01/19 00:05:15;;;;;;;10.87;9.77;;;4.00;99.90;;;;;;4980120;28;20492;-87
2022/01/19 00:07:42;;;;;;;12.13;10.10;;;3.90;99.90;;;;;;4981248;28;20499;-87
2022/01/19 00:10:15;;;;;;;11.73;9.63;;;3.90;99.90;;;;;;4979617;28;20466;-87
2022/01/19 00:12:43;;;;;;;10.50;9.40;;;4.00;99.90;;;;;;4979297;28;21012;-87
2022/01/19 00:15:11;;;;;;;11.17;10.20;;;3.90;99.90;;;;;;4979186;28;20543;-87
2022/01/19 00:17:38;;;;;;;14.07;9.80;;;3.80;99.90;;;;;;4990825;28;20563;-87
2022/01/19 00:20:07;;;;;;;14.83;10.43;;;3.80;99.90;;;;;;4990682;28;20526;-88
2022/01/19 00:22:33;;;;;;;17.13;10.17;;;3.70;99.90;;;;;;4963604;28;20456;-87
2022/01/19 00:25:01;;;;;;;14.87;10.70;;;3.60;99.90;;;;;;4977322;28;20462;-87
2022/01/19 00:27:29;;;;;;;13.30;9.80;;;3.60;99.90;;;;;;4981119;28;20470;-88
2022/01/19 00:29:56;;;;;;;10.93;9.60;;;3.60;99.90;;;;;;4979131;28;20833;-87
2022/01/19 00:32:24;;;;;;;14.00;11.67;;;3.50;99.90;;;;;;4979469;28;20451;-88
2022/01/19 00:34:51;;;;;;;11.30;10.10;;;3.60;99.90;;;;;;4979011;28;20459;-86
2022/01/19 00:37:18;;;;;;;13.67;10.60;;;3.60;99.90;;;;;;4977388;28;20471;-86
2022/01/19 00:39:45;;;;;;;13.30;10.47;;;3.50;99.90;;;;;;4981140;28;20490;-86
2022/01/19 00:42:11;;;;;;;10.70;9.60;;;3.50;99.90;;;;;;4994407;28;20447;-86
2022/01/19 00:44:39;;;;;;;13.30;10.70;;;3.40;99.90;;;;;;4977656;28;20466;-86
2022/01/19 00:47:06;;;;;;;12.03;10.83;;;3.40;99.90;;;;;;4992135;28;20468;-89
2022/01/19 00:49:33;;;;;;;13.93;10.67;;;3.30;99.90;;;;;;4988501;28;20451;-87
2022/01/19 00:52:00;;;;;;;12.30;10.20;;;3.30;99.90;;;;;;4977813;28;20462;-87
2022/01/19 00:54:27;;;;;;;17.70;10.13;;;3.20;99.90;;;;;;4977682;28;20462;-88
2022/01/19 00:56:54;;;;;;;14.67;9.30;;;3.20;99.90;;;;;;4977017;28;20480;-88
2022/01/19 00:59:20;;;;;;;16.10;10.37;;;3.20;99.90;;;;;;4982467;28;20465;-87
2022/01/19 01:01:48;;;;;;;22.23;10.97;;;3.10;99.90;;;;;;4978049;28;20451;-87
2022/01/19 01:04:15;;;;;;;11.63;10.43;;;3.10;99.90;;;;;;4976483;28;20456;-87
2022/01/19 01:06:42;;;;;;;15.57;11.20;;;3.00;99.90;;;;;;4976676;28;20483;-87
2022/01/19 01:09:09;;;;;;;14.80;10.80;;;3.00;99.90;;;;;;4976487;28;20466;-88
2022/01/19 01:11:45;;;;;;;15.37;10.97;;;3.00;99.90;;;;;;4976396;28;20448;-87
2022/01/19 01:17:11;;;;;;;15.87;11.27;;;2.90;99.90;;;;;;4975726;28;20546;-88
2022/01/19 01:19:38;;;;;;;15.70;11.33;;;2.90;99.90;;;;;;4983544;28;21034;-87
2022/01/19 01:22:05;;;;;;;13.37;11.77;;;2.80;99.90;;;;;;4980899;28;20459;-87
2022/01/19 01:25:16;;;;;;;13.73;10.80;;;2.80;99.90;;;;;;4980170;28;20450;-87
2022/01/19 01:27:43;;;;;;;15.33;11.03;;;2.70;99.90;;;;;;4978329;28;20470;-85
2022/01/19 01:30:10;;;;;;;14.60;10.80;;;2.70;99.90;;;;;;4991810;28;20826;-85
2022/01/19 01:32:38;;;;;;;14.20;11.20;;;2.70;99.90;;;;;;4977164;28;20445;-87
2022/01/19 01:35:06;;;;;;;12.97;11.57;;;2.60;99.90;;;;;;4969626;28;20471;-88
2022/01/19 01:37:33;;;;;;;13.37;11.13;;;2.60;99.90;;;;;;4979764;28;20472;-88
2022/01/19 01:40:01;;;;;;;17.00;10.80;;;2.60;99.90;;;;;;4983102;28;20482;-86
2022/01/19 01:42:27;;;;;;;12.67;11.00;;;2.60;99.90;;;;;;4984377;28;20894;-86
2022/01/19 01:44:58;;;;;;;18.60;12.97;;;2.60;99.90;;;;;;4994131;28;20475;-86
2022/01/19 01:47:26;;;;;;;16.37;12.10;;;2.60;99.90;;;;;;4996295;28;20483;-87
2022/01/19 01:55:25;;;;;;;14.63;12.27;;;2.40;99.90;;;;;;4995228;28;20503;-87
2022/01/19 01:57:53;;;;;;;15.57;11.20;;;2.50;99.90;;;;;;4986672;28;20523;-88
2022/01/19 02:00:23;;;;;;;15.27;11.30;;;2.50;99.90;;;;;;4995351;28;20476;-86
2022/01/19 02:02:50;;;;;;;17.33;12.50;;;2.40;99.90;;;;;;4996900;28;20466;-87
2022/01/19 02:05:22;;;;;;;18.30;12.97;;;2.40;99.90;;;;;;4975642;28;20489;-87
2022/01/19 02:08:00;;;;;;;13.60;11.40;;;2.30;99.90;;;;;;5045670;23;20501;-90
2022/01/19 02:10:35;;;;;;;13.83;11.87;;;2.30;99.90;;;;;;5001789;28;20497;-90
2022/01/19 02:16:08;;;;;;;16.13;12.20;;;2.30;99.90;;;;;;5016341;28;20742;-90
2022/01/19 02:21:45;;;;;;;16.77;12.30;;;2.20;99.90;;;;;;4886159;29;20299;-90
2022/01/19 02:24:14;;;;;;;14.43;12.87;;;2.30;99.90;;;;;;4983725;28;20457;-90
2022/01/19 02:30:17;;;;;;;22.03;14.30;;;2.40;99.90;;;;;;5017839;28;20536;-92
2022/01/19 02:40:57;;;;;;;15.67;12.33;;;2.40;99.90;;;;;;4971608;28;20479;-91
2022/01/19 02:43:26;;;;;;;15.13;12.67;;;2.50;99.90;;;;;;5013986;28;20467;-90
2022/01/19 02:51:22;;;;;;;18.23;12.40;;;2.50;99.90;;;;;;4995116;28;20491;-90
2022/01/19 02:53:51;;;;;;;19.27;13.88;;;2.50;99.90;;;;;;4994909;28;20457;-90
2022/01/19 02:56:23;;;;;;;20.40;14.70;;;2.40;99.90;;;;;;4983116;28;20221;-90
2022/01/19 02:58:55;;;;;;;18.33;13.20;;;2.40;99.90;;;;;;4993182;28;20493;-91
2022/01/19 03:09:36;;;;;;;17.50;15.20;;;2.10;99.90;;;;;;4988571;28;20414;-90
2022/01/19 03:12:04;;;;;;;26.85;14.55;;;2.10;99.90;;;;;;4976392;28;20462;-91
2022/01/19 03:14:30;;;;;;;18.60;14.67;;;2.10;99.90;;;;;;4975627;28;20301;-90
2022/01/19 03:16:57;;;;;;;21.20;15.00;;;2.00;99.90;;;;;;4976903;28;20459;-90
2022/01/19 03:19:26;;;;;;;23.47;15.30;;;1.90;99.90;;;;;;4977415;28;20456;-90
2022/01/19 03:21:53;;;;;;;22.33;13.65;;;1.80;99.90;;;;;;4991123;28;20437;-90
2022/01/19 03:24:20;;;;;;;21.35;15.30;;;1.80;99.90;;;;;;4999410;28;20300;-90
2022/01/19 03:26:48;;;;;;;25.73;15.40;;;1.70;99.90;;;;;;4994802;28;20227;-90
2022/01/19 03:29:16;;;;;;;21.93;15.23;;;1.80;99.90;;;;;;4994995;28;20458;-90
2022/01/19 03:31:42;;;;;;;19.97;15.50;;;1.70;99.90;;;;;;5001199;28;20453;-90
2022/01/19 03:34:11;;;;;;;23.60;16.17;;;1.80;99.90;;;;;;5000119;28;20917;-90
2022/01/19 03:36:38;;;;;;;22.33;16.53;;;1.80;99.90;;;;;;4999302;28;20489;-90
2022/01/19 03:39:06;;;;;;;22.60;14.90;;;1.70;99.90;;;;;;4999549;28;20458;-90
2022/01/19 03:41:33;;;;;;;20.75;16.02;;;1.80;99.90;;;;;;5009270;28;20483;-91
2022/01/19 03:44:01;;;;;;;21.83;16.02;;;1.80;99.90;;;;;;5021492;28;20218;-92
2022/01/19 03:46:34;;;;;;;29.35;17.92;;;1.80;99.90;;;;;;5008026;28;20210;-90
2022/01/19 03:49:11;;;;;;;26.02;17.92;;;1.70;99.90;;;;;;5001326;28;20208;-91
2022/01/19 03:51:38;;;;;;;21.23;16.83;;;1.70;99.90;;;;;;4999413;28;20206;-90
2022/01/19 03:54:06;;;;;;;25.13;17.05;;;1.70;99.90;;;;;;4999320;28;20208;-90
2022/01/19 03:56:33;;;;;;;28.80;18.30;;;1.60;99.90;;;;;;5000335;28;20225;-90
2022/01/19 03:59:01;;;;;;;27.63;17.40;;;1.60;99.90;;;;;;4984719;28;20668;-91
2022/01/19 04:01:28;;;;;;;21.80;16.75;;;1.60;99.90;;;;;;4987973;28;20220;-91
2022/01/19 04:09:16;;;;;;;23.33;16.42;;;1.50;99.90;;;;;;5004008;28;20308;-90
2022/01/19 04:11:44;;;;;;;22.42;15.82;;;1.50;99.90;;;;;;5013972;28;20201;-90
2022/01/19 04:14:25;;;;;;;22.27;16.20;;;1.50;99.90;;;;;;4999883;28;20199;-90
2022/01/19 04:16:53;;;;;;;21.60;16.00;;;1.50;99.90;;;;;;4985725;28;20510;-89
2022/01/19 04:19:26;;;;;;;24.05;16.77;;;1.50;99.90;;;;;;5008530;28;20722;-89
2022/01/19 04:21:54;;;;;;;30.17;18.70;;;1.50;99.90;;;;;;4998776;28;20220;-90
2022/01/19 04:24:21;;;;;;;24.85;17.17;;;1.60;99.90;;;;;;4999228;28;20457;-90
2022/01/19 04:26:58;;;;;;;28.92;18.08;;;1.50;99.90;;;;;;4997823;28;20232;-89
2022/01/19 04:29:26;;;;;;;28.20;18.77;;;1.50;99.90;;;;;;4998271;28;20255;-89
2022/01/19 04:31:53;;;;;;;22.80;16.63;;;1.40;99.90;;;;;;4997548;28;20205;-89
2022/01/19 04:34:20;;;;;;;19.23;15.37;;;1.40;99.90;;;;;;4988702;28;20454;-89
2022/01/19 04:37:20;;;;;;;21.48;15.65;;;1.40;99.90;;;;;;4978091;28;20477;-89
2022/01/19 04:45:32;;;;;;;23.25;16.67;;;1.20;99.90;;;;;;4995187;28;20245;-89
2022/01/19 05:02:17;;;;;;;28.73;17.35;;;1.00;99.90;;;;;;5000834;28;20233;-90
2022/01/19 05:04:52;;;;;;;28.38;16.80;;;1.00;99.90;;;;;;4999938;28;20198;-89
2022/01/19 05:07:23;;;;;;;24.60;16.83;;;0.90;99.90;;;;;;5017286;28;20214;-90
2022/01/19 05:09:59;;;;;;;28.65;19.25;;;0.90;99.90;;;;;;5011555;28;21087;-90
2022/01/19 05:15:19;;;;;;;29.23;18.92;;;0.90;99.90;;;;;;4951623;28;20201;-90
2022/01/19 05:17:48;;;;;;;25.70;18.95;;;1.00;99.90;;;;;;4998370;28;20286;-89
2022/01/19 05:20:15;;;;;;;28.63;20.95;;;1.00;99.90;;;;;;4997571;28;20196;-89
2022/01/19 05:22:41;;;;;;;25.63;19.15;;;1.10;99.90;;;;;;5018333;28;20207;-89
2022/01/19 05:25:09;;;;;;;29.92;20.27;;;1.00;99.90;;;;;;5022442;28;20219;-82
2022/01/19 05:27:36;;;;;;;26.88;20.60;;;1.10;99.90;;;;;;4987555;28;20329;-77
2022/01/19 05:30:03;;;;;;;25.90;17.77;;;1.20;99.90;;;;;;4981999;28;20583;-78
2022/01/19 05:32:33;;;;;;;27.42;19.13;;;1.20;99.90;;;;;;4979723;28;20214;-88
2022/01/19 05:35:01;;;;;;;22.38;18.50;;;1.20;99.90;;;;;;4979240;28;20770;-91
2022/01/19 05:37:28;;;;;;;21.30;17.08;;;1.20;99.90;;;;;;4979139;28;20229;-90
2022/01/19 05:39:55;;;;;;;26.35;17.42;;;1.20;99.90;;;;;;4979922;28;20208;-89
2022/01/19 05:42:23;;;;;;;22.88;16.00;;;1.20;99.90;;;;;;4984363;28;20206;-91
2022/01/19 05:44:49;;;;;;;24.15;16.17;;;1.10;99.90;;;;;;4984629;28;20205;-89
2022/01/19 05:47:16;;;;;;;21.25;16.58;;;1.20;99.90;;;;;;4978354;28;20234;-90
2022/01/19 05:49:44;;;;;;;20.55;15.07;;;1.20;99.90;;;;;;4977523;28;20286;-89
2022/01/19 05:52:13;;;;;;;23.42;16.17;;;1.20;99.90;;;;;;4981317;28;20297;-90
2022/01/19 05:54:41;;;;;;;20.50;14.23;;;1.20;99.90;;;;;;4986261;28;20213;-90
2022/01/19 05:57:08;;;;;;;18.50;14.60;;;1.30;99.90;;;;;;4996819;28;20227;-89
2022/01/19 05:59:35;;;;;;;21.25;14.73;;;1.30;99.90;;;;;;5012914;28;20202;-89
2022/01/19 06:02:02;;;;;;;20.27;13.65;;;1.30;99.90;;;;;;5002316;28;20229;-89
2022/01/19 06:04:29;;;;;;;20.40;13.53;;;1.20;99.90;;;;;;5014544;28;20671;-89
2022/01/19 06:06:57;;;;;;;25.20;15.18;;;1.30;99.90;;;;;;5016100;28;20527;-89
2022/01/19 06:09:34;;;;;;;22.35;15.95;;;1.20;99.90;;;;;;5021958;28;20224;-90
2022/01/19 06:12:05;;;;;;;21.38;16.15;;;1.20;99.90;;;;;;5025855;28;20202;-91
2022/01/19 06:14:33;;;;;;;27.05;15.13;;;1.10;99.90;;;;;;5024296;28;20232;-91
2022/01/19 06:17:00;;;;;;;22.52;17.13;;;1.10;99.90;;;;;;5011922;28;20227;-90
2022/01/19 06:19:27;;;;;;;23.95;17.40;;;1.00;99.90;;;;;;5009669;28;20448;-90
2022/01/19 06:21:54;;;;;;;26.77;16.63;;;1.00;99.90;;;;;;5013814;28;20624;-88
2022/01/19 06:24:23;;;;;;;32.25;17.83;;;0.90;99.90;;;;;;4996409;28;20587;-89
2022/01/19 06:26:52;;;;;;;25.70;16.77;;;0.90;99.90;;;;;;5006113;28;20230;-90
2022/01/19 06:29:19;;;;;;;26.70;18.23;;;0.90;99.90;;;;;;4998358;28;20537;-90
2022/01/19 06:31:46;;;;;;;29.77;18.40;;;1.00;99.90;;;;;;5008888;28;20455;-90
2022/01/19 06:34:13;;;;;;;22.88;16.90;;;1.00;99.90;;;;;;5004229;28;20206;-90
2022/01/19 06:36:42;;;;;;;26.10;17.65;;;1.00;99.90;;;;;;5022594;28;20213;-91
2022/01/19 06:39:09;;;;;;;29.13;17.50;;;1.10;99.90;;;;;;5009336;28;20199;-90
2022/01/19 06:41:36;;;;;;;29.75;20.98;;;1.20;99.90;;;;;;4981473;28;20734;-90
2022/01/19 06:44:06;;;;;;;25.92;16.75;;;1.30;99.90;;;;;;5015316;28;20202;-90
2022/01/19 06:46:33;;;;;;;22.60;15.88;;;1.30;99.90;;;;;;5007714;28;20228;-89
2022/01/19 06:49:00;;;;;;;23.23;16.88;;;1.30;99.90;;;;;;5025239;28;20208;-92
2022/01/19 06:51:27;;;;;;;27.83;18.92;;;1.40;99.90;;;;;;5009315;28;20214;-89
2022/01/19 06:53:54;;;;;;;22.25;17.25;;;1.40;99.90;;;;;;5005315;28;20289;-88
2022/01/19 06:56:21;;;;;;;25.02;17.00;;;1.40;99.90;;;;;;5012735;28;20232;-88
2022/01/19 06:58:48;;;;;;;22.10;16.73;;;1.40;99.90;;;;;;5000773;28;20201;-88
2022/01/19 07:01:17;;;;;;;22.73;17.30;;;1.40;99.90;;;;;;5009054;28;20230;-88
2022/01/19 07:03:44;;;;;;;23.48;16.65;;;1.40;99.90;;;;;;5033164;28;20255;-87
2022/01/19 07:06:11;;;;;;;22.67;18.00;;;1.30;99.90;;;;;;5025354;28;20186;-87
2022/01/19 07:08:38;;;;;;;21.88;16.67;;;1.10;99.90;;;;;;5016363;28;20451;-88
2022/01/19 07:11:05;;;;;;;28.85;19.17;;;1.10;99.90;;;;;;5027689;28;20198;-89
2022/01/19 07:13:32;;;;;;;24.38;17.13;;;1.10;99.90;;;;;;5005587;28;20221;-89
2022/01/19 07:15:59;;;;;;;26.90;18.97;;;1.10;99.90;;;;;;5009336;28;20203;-87
2022/01/19 07:18:27;;;;;;;26.27;17.73;;;1.20;99.90;;;;;;5004464;28;20452;-88
2022/01/19 07:20:54;;;;;;;32.47;18.50;;;1.20;99.90;;;;;;4993553;28;20201;-88
2022/01/19 07:23:20;;;;;;;24.03;18.10;;;1.10;99.90;;;;;;5002082;28;20208;-88
2022/01/19 07:25:47;;;;;;;33.00;20.92;;;1.00;99.90;;;;;;4992426;28;20458;-88
2022/01/19 07:28:14;;;;;;;27.98;18.00;;;1.00;99.90;;;;;;4998308;28;20217;-88
2022/01/19 07:30:42;;;;;;;26.38;20.60;;;1.00;99.90;;;;;;5001409;28;20191;-88
2022/01/19 07:33:09;;;;;;;28.67;18.27;;;1.00;99.90;;;;;;4996895;28;20196;-88
2022/01/19 07:35:37;;;;;;;24.50;16.58;;;1.10;99.90;;;;;;4993315;28;20583;-88
2022/01/19 07:38:04;;;;;;;25.20;18.38;;;1.10;99.90;;;;;;5004013;28;20219;-89
2022/01/19 07:40:30;;;;;;;27.10;17.23;;;1.10;99.90;;;;;;5008522;28;20209;-89
2022/01/19 07:42:57;;;;;;;24.58;18.30;;;1.10;99.90;;;;;;4998257;28;20496;-89
2022/01/19 07:45:24;;;;;;;22.40;16.93;;;1.10;99.90;;;;;;5002369;28;20300;-88
2022/01/19 07:47:50;;;;;;;30.07;18.40;;;1.20;99.90;;;;;;4995323;28;20480;-89
2022/01/19 07:50:17;;;;;;;27.75;17.00;;;1.30;99.90;;;;;;4995792;28;20459;-89
2022/01/19 07:52:46;;;;;;;27.67;18.45;;;1.30;99.90;;;;;;5003135;28;20203;-89
2022/01/19 07:55:12;;;;;;;29.73;20.13;;;1.30;99.90;;;;;;4996582;28;20721;-89
2022/01/19 07:57:40;;;;;;;26.70;19.30;;;1.30;99.90;;;;;;4999305;28;20248;-89
2022/01/19 08:00:09;;;;;;;30.40;17.88;;;1.40;99.90;;;;;;4984172;28;20698;-89
2022/01/19 08:02:36;;;;;;;27.33;20.63;;;1.50;99.90;;;;;;4992365;28;20229;-88
2022/01/19 08:05:03;;;;;;;29.25;18.77;;;1.50;99.90;;;;;;4991304;28;20202;-89
2022/01/19 08:07:30;;;;;;;32.30;19.77;;;1.60;99.90;;;;;;5023859;23;20900;-86
2022/01/19 08:09:58;;;;;;;32.28;19.92;;;1.70;99.90;;;;;;5031953;28;20197;-86
2022/01/19 08:12:25;;;;;;;25.50;18.33;;;1.90;99.90;;;;;;5016952;28;20227;-86
2022/01/19 08:14:52;;;;;;;26.00;18.25;;;2.00;99.90;;;;;;5035790;28;20977;-86
2022/01/19 08:17:19;;;;;;;29.80;18.13;;;2.00;99.90;;;;;;5046577;28;20219;-86
2022/01/19 08:19:47;;;;;;;28.20;18.98;;;2.10;99.90;;;;;;5037481;28;20280;-86
2022/01/19 08:22:14;;;;;;;24.15;20.10;;;2.20;99.90;;;;;;5033814;28;20219;-86
2022/01/19 08:24:41;;;;;;;27.77;18.43;;;2.20;99.90;;;;;;5019918;28;20635;-86
2022/01/19 08:27:09;;;;;;;24.60;17.83;;;2.30;99.90;;;;;;5036515;28;21025;-86
2022/01/19 08:29:36;;;;;;;23.33;15.00;;;2.30;99.90;;;;;;5036321;28;20207;-86
2022/01/19 08:32:02;;;;;;;24.50;16.20;;;2.40;99.90;;;;;;5020417;28;20873;-87
2022/01/19 08:34:30;;;;;;;27.33;17.30;;;2.40;99.90;;;;;;5029059;28;20453;-87
2022/01/19 08:36:57;;;;;;;25.20;16.63;;;2.50;99.90;;;;;;5017165;28;20512;-87
2022/01/19 08:39:24;;;;;;;21.40;16.30;;;2.60;99.90;;;;;;5024766;28;20563;-87
2022/01/19 08:41:51;;;;;;;25.77;18.57;;;2.60;99.90;;;;;;5017570;28;20539;-86
2022/01/19 08:44:19;;;;;;;27.07;18.53;;;2.70;99.90;;;;;;5018900;28;20449;-87
2022/01/19 08:46:46;;;;;;;22.00;16.03;;;2.80;99.90;;;;;;5020822;28;21027;-87
2022/01/19 08:49:13;;;;;;;19.83;15.37;;;2.80;99.90;;;;;;5026842;28;20460;-87
2022/01/19 08:51:40;;;;;;;25.30;17.20;;;2.90;99.90;;;;;;5022114;28;20463;-87
2022/01/19 08:54:06;;;;;;;28.17;16.40;;;3.00;99.90;;;;;;5027243;28;20452;-86
2022/01/19 08:56:33;;;;;;;22.20;17.60;;;3.00;99.90;;;;;;5018884;28;20447;-87
2022/01/19 08:59:00;;;;;;;18.63;16.07;;;3.10;99.90;;;;;;5016348;28;20458;-87
2022/01/19 09:01:28;;;;;;;18.73;15.27;;;3.20;99.90;;;;;;5028343;28;20488;-87
2022/01/19 09:03:55;;;;;;;24.00;17.23;;;3.40;99.90;;;;;;5033537;28;20821;-87
2022/01/19 09:06:22;;;;;;;25.23;17.80;;;3.80;99.90;;;;;;5024849;28;20486;-87
2022/01/19 09:08:49;;;;;;;19.50;15.40;;;4.20;99.90;;;;;;5026364;28;20466;-87
2022/01/19 09:11:15;;;;;;;17.60;14.47;;;4.80;99.90;;;;;;5043632;28;20464;-87
2022/01/19 09:13:44;;;;;;;22.50;16.03;;;5.30;99.90;;;;;;5039742;28;20461;-87
2022/01/19 09:16:11;;;;;;;17.17;14.97;;;5.70;99.90;;;;;;5044824;28;20516;-89
2022/01/19 09:18:39;;;;;;;18.27;15.00;;;5.70;99.90;;;;;;5038280;28;20475;-87
2022/01/19 09:21:05;;;;;;;17.83;14.20;;;5.50;99.90;;;;;;5051449;28;20441;-87
2022/01/19 09:23:35;;;;;;;17.77;15.63;;;5.10;99.90;;;;;;5035983;28;20469;-86
2022/01/19 09:26:02;;;;;;;17.50;15.77;;;5.10;99.90;;;;;;5031877;28;20477;-87
2022/01/19 09:28:28;;;;;;;19.20;15.43;;;5.30;99.90;;;;;;5039488;28;20481;-86
2022/01/19 09:30:59;;;;;;;19.73;15.67;;;5.50;99.90;;;;;;5049780;28;20446;-88
2022/01/19 09:33:28;;;;;;;22.67;15.93;;;6.30;99.90;;;;;;5043368;28;20492;-89
2022/01/19 09:36:07;;;;;;;17.87;15.43;;;6.50;99.90;;;;;;5032951;28;20542;-86
2022/01/19 09:38:35;;;;;;;18.60;16.03;;;6.50;99.80;;;;;;5045666;28;21001;-87
2022/01/19 09:41:06;;;;;;;18.70;15.57;;;6.90;99.60;;;;;;5032939;28;20465;-87
2022/01/19 09:43:33;;;;;;;17.60;15.70;;;7.10;98.80;;;;;;5028600;28;20485;-87
2022/01/19 09:46:01;;;;;;;21.60;15.60;;;6.70;98.30;;;;;;5021082;28;20453;-86
2022/01/19 09:48:30;;;;;;;19.97;16.17;;;6.60;98.70;;;;;;5039374;28;20445;-87
2022/01/19 09:50:58;;;;;;;18.00;14.60;;;6.90;98.70;;;;;;5044512;28;20445;-87
2022/01/19 09:53:25;;;;;;;16.33;14.27;;;7.20;98.40;;;;;;5039791;28;20446;-87
2022/01/19 09:55:52;;;;;;;16.47;14.00;;;7.60;97.30;;;;;;5040317;28;20777;-86
2022/01/19 09:58:21;;;;;;;15.87;14.17;;;7.80;96.70;;;;;;5029382;28;20470;-87
2022/01/19 10:00:48;;;;;;;18.60;15.70;;;8.20;96.10;;;;;;5016787;28;20533;-88
2022/01/19 10:03:18;;;;;;;20.93;14.97;;;9.20;95.30;;;;;;5014237;28;20490;-87
2022/01/19 10:05:56;;;;;;;18.83;16.07;;;10.20;93.00;;;;;;5021220;28;20458;-87
2022/01/19 10:08:29;;;;;;;18.93;16.90;;;10.50;91.00;;;;;;5021562;28;20481;-88
2022/01/19 10:11:12;;;;;;;16.50;14.77;;;10.40;90.80;;;;;;5033183;28;20449;-87
2022/01/19 10:19:15;;;;;;;18.10;16.20;;;9.90;90.60;;;;;;5020833;28;20544;-88
2022/01/19 10:22:00;;;;;;;20.50;15.90;;;9.90;91.00;;;;;;5013523;28;20531;-86
2022/01/19 10:24:36;;;;;;;18.00;16.10;;;10.10;90.20;;;;;;5033514;28;20445;-86
2022/01/19 10:27:28;;;;;;;15.60;14.10;;;10.70;90.00;;;;;;5041450;28;20503;-86
2022/01/19 10:30:11;;;;;;;17.37;15.10;;;11.70;87.70;;;;;;5028041;28;20451;-87
2022/01/19 10:32:41;;;;;;;20.70;16.47;;;13.00;83.30;;;;;;5004113;28;20450;-86
2022/01/19 10:35:16;;;;;;;18.60;15.70;;;13.30;79.00;;;;;;5019188;28;20488;-86
2022/01/19 10:37:44;;;;;;;18.40;16.40;;;13.30;78.30;;;;;;5017826;28;20818;-87
2022/01/19 10:40:17;;;;;;;20.87;16.13;;;13.20;76.70;;;;;;5029308;28;20533;-86
2022/01/19 10:42:44;;;;;;;19.73;15.20;;;12.80;77.40;;;;;;5023710;28;20560;-87
2022/01/19 10:45:12;;;;;;;18.00;16.13;;;12.50;78.30;;;;;;5022727;28;20454;-87
2022/01/19 10:47:44;;;;;;;16.27;14.50;;;12.50;78.40;;;;;;5015567;28;20509;-86
2022/01/19 10:50:13;;;;;;;15.07;13.47;;;12.80;78.10;;;;;;5021888;28;20447;-87
2022/01/19 10:52:42;;;;;;;22.70;16.00;;;13.40;77.00;;;;;;5029480;28;20447;-87
2022/01/19 10:55:11;;;;;;;17.53;15.10;;;15.10;74.00;;;;;;5029688;28;20461;-87
2022/01/19 10:57:43;;;;;;;17.37;15.57;;;16.70;69.10;;;;;;5043461;28;21008;-87
2022/01/19 11:00:15;;;;;;;16.23;14.63;;;17.00;66.30;;;;;;5042330;28;20449;-87
2022/01/19 11:02:44;;;;;;;15.90;14.50;;;17.80;63.10;;;;;;5041367;28;20482;-87
2022/01/19 11:05:11;;;;;;;18.77;14.90;;;17.90;59.40;;;;;;5019493;28;20446;-87
2022/01/19 11:07:38;;;;;;;16.93;15.40;;;18.70;60.00;;;;;;5015250;28;20483;-88
2022/01/19 11:10:12;;;;;;;16.77;15.17;;;19.70;56.80;;;;;;5030952;28;20452;-88
2022/01/19 11:12:46;;;;;;;16.73;15.13;;;19.50;55.10;;;;;;5035193;28;20859;-87
2022/01/19 11:15:15;;;;;;;16.30;14.80;;;20.20;53.80;;;;;;5027246;28;20509;-88
2022/01/19 11:17:43;;;;;;;16.03;14.40;;;20.40;52.70;;;;;;5039072;28;20491;-88
2022/01/19 11:20:13;;;;;;;15.13;13.60;;;21.60;52.00;;;;;;5046232;28;20444;-87
2022/01/19 11:22:49;;;;;;;15.80;14.20;;;21.80;49.70;;;;;;5056944;28;20453;-88
2022/01/19 11:25:25;;;;;;;15.80;13.63;;;22.40;49.70;;;;;;5038236;28;20457;-90
2022/01/19 11:27:53;;;;;;;16.20;14.77;;;22.20;48.20;;;;;;5038233;28;20776;-88
2022/01/19 11:30:24;;;;;;;14.70;13.50;;;22.70;47.80;;;;;;5036519;28;20474;-89
2022/01/19 11:33:15;;;;;;;15.40;13.90;;;23.70;46.80;;;;;;5026940;28;20481;-88
2022/01/19 11:35:45;;;;;;;14.20;12.90;;;23.70;44.60;;;;;;5021892;28;20457;-87
2022/01/19 11:38:32;;;;;;;14.70;13.57;;;24.50;45.10;;;;;;5021783;28;20467;-88
2022/01/19 11:41:00;;;;;;;14.67;13.57;;;25.20;42.70;;;;;;5002013;28;20540;-87
2022/01/19 11:43:30;;;;;;;15.57;14.07;;;25.20;42.40;;;;;;5010713;28;20483;-88
2022/01/19 11:45:57;;;;;;;15.53;14.03;;;25.70;41.80;;;;;;5025673;28;20457;-87
2022/01/19 11:48:26;;;;;;;14.77;13.23;;;26.30;41.60;;;;;;5034544;28;20465;-87
2022/01/19 11:50:56;;;;;;;14.30;13.00;;;26.30;39.10;;;;;;5034554;28;20448;-88
2022/01/19 11:53:22;;;;;;;16.07;14.67;;;26.70;39.80;;;;;;5039320;28;20490;-87
2022/01/19 11:56:06;;;;;;;15.03;13.17;;;26.20;38.80;;;;;;5023098;28;20453;-88
2022/01/19 11:58:34;;;;;;;16.90;14.70;;;26.00;39.00;;;;;;5015584;28;20470;-87
2022/01/19 12:01:01;;;;;;;15.40;14.00;;;25.70;39.40;;;;;;5021709;28;20797;-87
2022/01/19 12:03:30;;;;;;;16.10;14.80;;;25.70;39.30;;;;;;5033557;28;20488;-88
2022/01/19 12:05:58;;;;;;;15.63;14.10;;;24.70;40.00;;;;;;5035527;28;20977;-88
2022/01/19 12:08:31;;;;;;;16.57;14.97;;;24.60;40.40;;;;;;5020090;28;20484;-87
2022/01/19 12:11:11;;;;;;;16.47;15.00;;;24.30;40.60;;;;;;5016462;28;20451;-87
2022/01/19 12:13:57;;;;;;;16.23;14.70;;;23.50;40.00;;;;;;5031739;28;20431;-89
2022/01/19 12:16:48;;;;;;;15.33;13.87;;;22.70;41.70;;;;;;5037877;28;20486;-88
2022/01/19 12:19:20;;;;;;;16.40;14.77;;;23.20;41.40;;;;;;5032306;28;20460;-87
2022/01/19 12:21:50;;;;;;;16.83;15.43;;;22.70;41.60;;;;;;5016988;28;20434;-87
2022/01/19 12:24:22;;;;;;;16.00;14.60;;;22.60;41.90;;;;;;5029363;28;20471;-88
2022/01/19 12:26:59;;;;;;;14.60;12.97;;;22.00;42.80;;;;;;5035790;28;20457;-89
2022/01/19 12:29:42;;;;;;;14.60;13.10;;;22.40;43.50;;;;;;5046343;28;20441;-88
2022/01/19 12:32:30;;;;;;;14.00;12.53;;;21.80;42.90;;;;;;5037933;28;20450;-88
2022/01/19 12:34:58;;;;;;;12.60;11.30;;;20.10;44.70;;;;;;5034401;28;20455;-88
2022/01/19 12:37:38;;;;;;;13.57;12.23;;;18.80;46.50;;;;;;5025424;28;20464;-88
2022/01/19 12:40:25;;;;;;;12.77;11.17;;;19.40;47.40;;;;;;5018025;28;20446;-88
2022/01/19 12:42:54;;;;;;;13.03;11.83;;;19.50;46.00;;;;;;5025117;28;20576;-88
2022/01/19 12:45:26;;;;;;;13.90;12.60;;;18.70;47.10;;;;;;5039815;28;20485;-88
2022/01/19 12:47:55;;;;;;;11.87;10.80;;;18.90;47.70;;;;;;5026100;28;20465;-85
2022/01/19 12:50:45;;;;;;;12.67;11.53;;;18.50;47.60;;;;;;5035625;28;20449;-86
2022/01/19 12:53:16;;;;;;;13.23;12.10;;;17.60;48.00;;;;;;5036472;28;20441;-85
2022/01/19 12:55:46;;;;;;;12.40;11.10;;;17.20;49.30;;;;;;5038087;28;20822;-85
2022/01/19 12:58:16;;;;;;;12.93;11.30;;;16.60;50.40;;;;;;5041482;28;20496;-84
2022/01/19 13:00:48;;;;;;;13.03;11.73;;;15.90;51.10;;;;;;5032403;28;20446;-86
2022/01/19 13:03:25;;;;;;;12.53;11.20;;;15.70;52.40;;;;;;5042384;28;20488;-84
2022/01/19 13:06:00;;;;;;;12.90;11.70;;;15.00;52.90;;;;;;5047185;28;20454;-86
2022/01/19 13:08:37;;;;;;;13.10;11.77;;;14.00;54.50;;;;;;5036546;28;20484;-85
2022/01/19 13:11:22;;;;;;;16.77;10.57;;;13.40;56.30;;;;;;5025253;28;20451;-84
2022/01/19 13:14:03;;;;;;;12.00;10.70;;;12.80;57.40;;;;;;5018466;28;20457;-85
2022/01/19 13:16:34;;;;;;;13.83;11.07;;;12.00;59.00;;;;;;5025020;28;20449;-85
2022/01/19 13:19:05;;;;;;;12.47;11.27;;;11.70;61.10;;;;;;5035561;28;20826;-85
2022/01/19 13:21:33;;;;;;;15.83;11.47;;;11.40;62.40;;;;;;5025546;28;20453;-85
2022/01/19 13:24:01;;;;;;;17.50;12.50;;;11.20;63.80;;;;;;5016244;28;20509;-85
2022/01/19 13:26:37;;;;;;;18.90;11.93;;;11.10;65.30;;;;;;5029168;28;20467;-85
2022/01/19 13:29:13;;;;;;;18.97;11.80;;;10.70;65.60;;;;;;5018054;28;20966;-85
2022/01/19 13:31:41;;;;;;;12.10;10.20;;;10.50;66.50;;;;;;5014510;28;20457;-86
2022/01/19 13:34:07;;;;;;;15.90;10.40;;;10.40;67.60;;;;;;5022422;28;21007;-85
2022/01/19 13:36:36;;;;;;;18.60;11.43;;;10.20;68.60;;;;;;5022751;28;20932;-85
2022/01/19 13:39:05;;;;;;;12.80;10.20;;;10.00;69.40;;;;;;5015412;28;20457;-86
2022/01/19 13:41:32;;;;;;;14.57;10.47;;;9.90;71.00;;;;;;5019853;28;20471;-85
2022/01/19 13:44:04;;;;;;;12.90;10.00;;;9.90;72.30;;;;;;5028468;28;20489;-85
2022/01/19 13:46:32;;;;;;;10.53;9.43;;;9.90;72.60;;;;;;5037190;28;20457;-84
2022/01/19 13:49:02;;;;;;;14.00;10.63;;;10.00;70.90;;;;;;5036383;28;20481;-85
2022/01/19 13:51:30;;;;;;;13.77;10.23;;;10.20;71.20;;;;;;5017937;28;20454;-85
2022/01/19 13:54:02;;;;;;;14.40;9.83;;;10.30;70.40;;;;;;5033776;28;20523;-84
2022/01/19 13:56:30;;;;;;;13.67;11.50;;;10.30;70.00;;;;;;5018739;28;20453;-85
2022/01/19 13:58:59;;;;;;;13.10;10.60;;;10.20;70.20;;;;;;5032540;28;20458;-85